Airfield :
LOGIN :

Register | Disclaimer

   EN    FR    IT 

 










Legend :    VFR   Marginal VFR   IFR   Intensive IFR   Very Intensive IFR
Visi :
Ceiling :
>= 8 km
>= 3000ft
5 to 8 km
1000 to 3000 ft
1500m to 5 km
500 to 1000 ft
800 to 1500m
200 to 500 ft
< 800m
< 200 ft
Symbols :   Thunderstorms  Fog  Heavy snow  Heavy precipitations  Wind > 20 kt
SIGMETs :     Misc.  Thunderstorms  Icing  Turbulence  Mountain Waves  Volcanic Ashes







- Airport Elevation : 1363 ft


ETIC - Grafenwohr Army Air Field

CURRENT METAR :
  • 191241Z AUTO 00000KT 9999 OVC030 15/10 A3021 RMK AO2 SLP237 $

EXPIRED METARs :
  • 191156Z AUTO 02003KT 9999 OVC027 15/10 A3021 RMK AO2 SLP237 T01490099 10149 20029 58006 $
  • 191056Z AUTO 00000KT 9999 OVC023 14/10 A3023 RMK AO2 SLP243 T01420098 $
  • 190956Z AUTO 00000KT 9999 OVC023 12/12 A3023 RMK AO2 SLP245 T01240124 $

TAF AMD TAF ETIC
Valid from the 19 at 07:00 until the 20 at 12:00 UTC


190800Z 1907/2012 VRB06KT 0800 FG BKN000 QNH3017INS
TEMPO 1907/1909 3200 BR
BECMG 1908/1909 VRB06KT 9999 NSW FEW012 SCT015 QNH3020INS
BECMG 1922/1923 VRB06KT 2400 BR SKC QNH3025INS
BECMG 2002/2003 VRB06KT 0400 FG VV001 QNH3028INS TX17/1914Z TN03/2006Z
No reported NOTAMs for that airfield.



MET'MAP, your aeronautical weather chart ! - Copyright ORBIFLY December 2007 - Disclaimer

ORBIFLY MET'MAP TEAM :

Programming & Development : Alexandra Zaïnal
Concept & Development : Baudouin d'Aumeries
Co-Development & Prog : Marc-Olivier Méhu
Technical & hardware support : Manuel Goepfert

Contact : metmap@orbifly.com




SOURCES & CREDITS :

   NOAA